Airfield :
LOGIN :

Register | Disclaimer

   EN    FR    IT 

 










Legend :    VFR   Marginal VFR   IFR   Intensive IFR   Very Intensive IFR
Visi :
Ceiling :
>= 8 km
>= 3000ft
5 to 8 km
1000 to 3000 ft
1500m to 5 km
500 to 1000 ft
800 to 1500m
200 to 500 ft
< 800m
< 200 ft
Symbols :   Thunderstorms  Fog  Heavy snow  Heavy precipitations  Wind > 20 kt
SIGMETs :     Misc.  Thunderstorms  Icing  Turbulence  Mountain Waves  Volcanic Ashes







- Airport Elevation : 313 ft
- IATA code : LEH
- Download approach charts


LFOH - Le Havre Octeville

CURRENT METAR :
  • 221000Z AUTO 19008KT 160V230 CAVOK 15/09 Q1021 TEMPO 4000 RA

EXPIRED METARs :
  • 220930Z AUTO 19009KT 9999 FEW036 BKN076 BKN100 15/10 Q1021 TEMPO 4000 RA
  • 220900Z AUTO 20010KT 160V220 9999 -RA FEW040 BKN049 BKN064 14/10 Q1021 TEMPO 4000 RA
  • 220830Z AUTO 19008KT 160V220 9999 FEW043 BKN054 BKN066 14/10 Q1022 TEMPO 4000 RA
  • 220800Z AUTO 18009KT CAVOK 14/09 Q1022 TEMPO 4000 RA

TAF TAF LFOH
Valid from the 22 at 06:00 until the 23 at 06:00 UTC


220500Z 2206/2306 23012KT 9999 BKN030
TEMPO 2206/2306 4000 RA
BECMG 2213/2215 12013KT
PROB40
TEMPO 2218/2306 14020G30KT 1500 RADZ OVC002
BECMG 2220/2224 24020G30KT
ATIS : +33 2 35 54 64 93
No reported NOTAMs for that airfield.



MET'MAP, your aeronautical weather chart ! - Copyright ORBIFLY December 2007 - Disclaimer

ORBIFLY MET'MAP TEAM :

Programming & Development : Alexandra Zaïnal
Concept & Development : Baudouin d'Aumeries
Co-Development & Prog : Marc-Olivier Méhu
Technical & hardware support : Manuel Goepfert

Contact : metmap@orbifly.com




SOURCES & CREDITS :

   NOAA